createdAt,value
2018-12-14T00:01:50.192Z,0.00
2018-12-14T00:04:16.607Z,0.10
2018-12-14T00:06:43.047Z,0.10
2018-12-14T00:09:09.434Z,0.10
2018-12-14T00:11:35.907Z,0.10
2018-12-14T00:14:02.288Z,0.10
2018-12-14T00:16:28.802Z,0.10
2018-12-14T00:18:55.279Z,0.10
2018-12-14T00:21:21.850Z,0.10
2018-12-14T00:26:43.066Z,0.10
2018-12-14T00:29:09.469Z,0.10
2018-12-14T00:31:35.913Z,0.00
2018-12-14T00:34:02.268Z,0.10
2018-12-14T00:36:28.666Z,0.10
2018-12-14T00:38:55.110Z,0.10
2018-12-14T00:41:21.509Z,0.10
2018-12-14T00:43:47.929Z,0.10
2018-12-14T00:46:14.426Z,0.10
2018-12-14T00:51:37.257Z,0.00
2018-12-14T00:54:03.930Z,0.00
2018-12-14T00:56:30.327Z,0.00
2018-12-14T00:58:56.794Z,0.00
2018-12-14T01:01:23.191Z,0.00
2018-12-14T01:03:49.653Z,0.10
2018-12-14T01:06:16.065Z,0.10
2018-12-14T01:08:42.486Z,0.10
2018-12-14T01:11:08.961Z,0.10
2018-12-14T01:13:35.450Z,0.00
2018-12-14T01:18:56.413Z,0.00
2018-12-14T01:21:22.876Z,0.00
2018-12-14T01:23:49.287Z,0.00
2018-12-14T01:26:15.709Z,0.10
2018-12-14T01:28:42.041Z,0.10
2018-12-14T01:31:08.444Z,0.10
2018-12-14T01:33:34.890Z,0.00
2018-12-14T01:36:01.365Z,0.00
2018-12-14T01:38:27.834Z,0.00
2018-12-14T01:40:54.289Z,0.00
2018-12-14T01:43:20.800Z,0.00
2018-12-14T01:45:48.091Z,0.10
2018-12-14T01:48:14.501Z,0.00
2018-12-14T01:50:40.896Z,0.00
2018-12-14T01:53:07.232Z,-0.10
2018-12-14T01:55:33.580Z,-0.10
2018-12-14T01:58:00.120Z,0.00
2018-12-14T02:00:26.574Z,0.00
2018-12-14T02:02:53.013Z,0.00
2018-12-14T02:05:19.451Z,0.00
2018-12-14T02:07:45.915Z,0.00
2018-12-14T02:10:12.347Z,0.00
2018-12-14T02:12:38.928Z,0.00
2018-12-14T02:15:05.493Z,0.00
2018-12-14T02:17:32.000Z,-0.10
2018-12-14T02:19:58.466Z,0.00
2018-12-14T02:22:24.969Z,0.00
2018-12-14T02:24:51.447Z,-0.20
2018-12-14T02:27:18.869Z,-0.10
2018-12-14T02:29:45.350Z,-0.10
2018-12-14T02:32:11.818Z,-0.10
2018-12-14T02:34:38.528Z,-0.10
2018-12-14T02:37:05.018Z,0.00
2018-12-14T02:39:31.456Z,0.00
2018-12-14T02:41:58.080Z,-0.10
2018-12-14T02:44:24.470Z,-0.10
2018-12-14T02:46:50.915Z,-0.10
2018-12-14T02:49:17.311Z,-0.20
2018-12-14T02:51:43.690Z,-0.20
2018-12-14T02:54:10.135Z,-0.20
2018-12-14T02:56:36.633Z,-0.20
2018-12-14T02:59:03.167Z,-0.20
2018-12-14T03:01:29.549Z,-0.10
2018-12-14T03:03:55.920Z,-0.20
2018-12-14T03:06:22.444Z,-0.20
2018-12-14T03:08:48.807Z,-0.20
2018-12-14T03:11:15.189Z,-0.30
2018-12-14T03:13:41.622Z,-0.20
2018-12-14T03:16:08.083Z,-0.30
2018-12-14T03:18:34.435Z,-0.30
2018-12-14T03:21:00.864Z,-0.20
2018-12-14T03:23:27.210Z,-0.20
2018-12-14T03:25:53.886Z,-0.30
2018-12-14T03:28:20.364Z,-0.20
2018-12-14T03:30:46.836Z,-0.20
2018-12-14T03:33:13.273Z,-0.20
2018-12-14T03:35:41.512Z,-0.20
2018-12-14T03:38:07.908Z,-0.20
2018-12-14T03:40:34.332Z,-0.20
2018-12-14T03:43:00.850Z,-0.20
2018-12-14T03:45:27.238Z,-0.20
2018-12-14T03:47:53.610Z,-0.20
2018-12-14T03:50:20.032Z,-0.30
2018-12-14T03:52:46.447Z,-0.20
2018-12-14T03:55:12.810Z,-0.20
2018-12-14T03:57:39.238Z,-0.20
2018-12-14T04:00:06.297Z,-0.20
2018-12-14T04:02:32.672Z,-0.30
2018-12-14T04:04:59.130Z,-0.30
2018-12-14T04:07:27.339Z,-0.30
2018-12-14T04:09:53.748Z,-0.20
2018-12-14T04:12:21.090Z,-0.20
2018-12-14T04:14:47.558Z,-0.20
2018-12-14T04:17:14.047Z,-0.30
2018-12-14T04:19:40.476Z,-0.30
2018-12-14T04:22:06.904Z,-0.30
2018-12-14T04:24:33.615Z,-0.40
2018-12-14T04:26:59.999Z,-0.40
2018-12-14T04:29:26.452Z,-0.40
2018-12-14T04:31:53.281Z,-0.40
2018-12-14T04:34:19.699Z,-0.40
2018-12-14T04:36:46.978Z,-0.30
2018-12-14T04:39:13.862Z,-0.30
2018-12-14T04:41:40.385Z,-0.30
2018-12-14T04:44:06.798Z,-0.40
2018-12-14T04:46:33.259Z,-0.40
2018-12-14T04:48:59.676Z,-0.40
2018-12-14T04:51:26.087Z,-0.50
2018-12-14T04:53:52.504Z,-0.40
2018-12-14T04:56:18.922Z,-0.50
2018-12-14T04:58:45.265Z,-0.50
2018-12-14T05:01:11.698Z,-0.60
2018-12-14T05:03:38.215Z,-0.50
2018-12-14T05:06:05.638Z,-0.60
2018-12-14T05:08:32.088Z,-0.70
2018-12-14T05:10:58.488Z,-0.70
2018-12-14T05:13:24.870Z,-0.70
2018-12-14T05:15:51.231Z,-0.80
2018-12-14T05:18:18.112Z,-0.80
2018-12-14T05:20:44.491Z,-0.70
2018-12-14T05:23:10.832Z,-0.80
2018-12-14T05:25:37.209Z,-0.80
2018-12-14T05:28:03.589Z,-0.70
2018-12-14T05:33:23.354Z,-0.50
2018-12-14T05:35:49.718Z,-0.50
2018-12-14T05:38:16.064Z,-0.50
2018-12-14T05:40:42.480Z,-0.50
2018-12-14T05:43:08.922Z,-0.60
2018-12-14T05:45:35.458Z,-0.70
2018-12-14T05:48:02.001Z,-0.60
2018-12-14T05:50:28.377Z,-0.60
2018-12-14T05:52:55.418Z,-0.60
2018-12-14T05:55:21.769Z,-0.70
2018-12-14T05:57:48.230Z,-0.80
2018-12-14T06:00:14.742Z,-0.60
2018-12-14T06:02:41.113Z,-0.60
2018-12-14T06:05:08.198Z,-0.60
2018-12-14T06:07:34.662Z,-0.50
2018-12-14T06:10:01.043Z,-0.50
2018-12-14T06:12:27.728Z,-0.50
2018-12-14T06:14:54.185Z,-0.50
2018-12-14T06:17:20.587Z,-0.50
2018-12-14T06:19:47.009Z,-0.40
2018-12-14T06:22:13.504Z,-0.30
2018-12-14T06:24:39.968Z,-0.40
2018-12-14T06:27:06.373Z,-0.40
2018-12-14T06:29:33.068Z,-0.40
2018-12-14T06:31:59.545Z,-0.50
2018-12-14T06:37:20.795Z,-0.30
2018-12-14T06:39:47.517Z,-0.30
2018-12-14T06:42:14.372Z,-0.30
2018-12-14T06:44:40.766Z,-0.30
2018-12-14T06:47:07.264Z,-0.30
2018-12-14T06:49:34.209Z,-0.20
2018-12-14T06:52:00.853Z,-0.30
2018-12-14T06:54:27.504Z,-0.20
2018-12-14T06:56:54.152Z,-0.20
2018-12-14T06:59:21.025Z,-0.30
2018-12-14T07:01:48.309Z,-0.30
2018-12-14T07:04:14.846Z,-0.40
2018-12-14T07:06:41.305Z,-0.40
2018-12-14T07:09:07.741Z,-0.30
2018-12-14T07:11:34.197Z,-0.20
2018-12-14T07:14:00.662Z,-0.20
2018-12-14T07:16:27.981Z,-0.10
2018-12-14T07:18:55.293Z,-0.20
2018-12-14T07:21:25.993Z,-0.10
2018-12-14T07:23:52.496Z,-0.10
2018-12-14T07:26:19.604Z,-0.10
2018-12-14T07:28:46.799Z,-0.20
2018-12-14T07:31:13.282Z,-0.20
2018-12-14T07:33:39.711Z,-0.10
2018-12-14T07:36:06.146Z,-0.10
2018-12-14T07:38:32.543Z,-0.10
2018-12-14T07:40:59.030Z,0.00
2018-12-14T07:43:28.280Z,0.00
2018-12-14T07:45:54.489Z,0.00
2018-12-14T07:48:20.962Z,-0.10
2018-12-14T07:50:47.713Z,-0.20
2018-12-14T07:53:14.252Z,-0.10
2018-12-14T07:55:41.708Z,-0.20
2018-12-14T07:58:08.123Z,-0.20
2018-12-14T08:00:34.729Z,-0.20
2018-12-14T08:03:01.671Z,-0.20
2018-12-14T08:05:28.424Z,-0.10
2018-12-14T08:07:54.862Z,-0.10
2018-12-14T08:10:21.784Z,-0.10
2018-12-14T08:12:48.401Z,-0.10
2018-12-14T08:15:15.615Z,-0.20
2018-12-14T08:17:41.952Z,0.00
2018-12-14T08:20:08.513Z,-0.10
2018-12-14T08:22:35.002Z,0.00
2018-12-14T08:25:03.776Z,0.00
2018-12-14T08:27:31.103Z,0.10
2018-12-14T08:29:57.611Z,0.00
2018-12-14T08:32:24.023Z,0.10
2018-12-14T08:34:51.439Z,0.10
2018-12-14T08:37:18.139Z,0.10
2018-12-14T08:39:44.628Z,0.10
2018-12-14T08:42:11.774Z,0.10
2018-12-14T08:44:38.687Z,0.10
2018-12-14T08:47:05.224Z,-0.10
2018-12-14T08:49:32.668Z,-0.10
2018-12-14T08:51:59.101Z,-0.10
2018-12-14T08:54:25.462Z,-0.20
2018-12-14T08:56:51.893Z,-0.10
2018-12-14T08:59:18.433Z,0.00
2018-12-14T09:01:45.070Z,0.00
2018-12-14T09:04:11.522Z,0.00
2018-12-14T09:06:37.971Z,0.10
2018-12-14T09:09:05.383Z,0.10
2018-12-14T09:11:31.760Z,0.10
2018-12-14T09:13:58.362Z,0.10
2018-12-14T09:16:24.935Z,0.10
2018-12-14T09:18:51.440Z,0.10
2018-12-14T09:21:17.880Z,0.10
2018-12-14T09:23:44.328Z,0.10
2018-12-14T09:26:11.292Z,0.10
2018-12-14T09:28:37.926Z,0.20
2018-12-14T09:31:04.394Z,0.20
2018-12-14T09:33:30.851Z,0.30
2018-12-14T09:35:57.312Z,0.30
2018-12-14T09:38:23.738Z,0.10
2018-12-14T09:40:51.019Z,0.10
2018-12-14T09:43:17.755Z,0.10
2018-12-14T09:45:44.375Z,0.30
2018-12-14T09:48:10.874Z,0.10
2018-12-14T09:50:37.339Z,0.20
2018-12-14T09:53:18.725Z,0.10
2018-12-14T09:55:45.233Z,0.10
2018-12-14T09:58:11.686Z,0.10
2018-12-14T10:00:38.123Z,0.10
2018-12-14T10:03:04.515Z,0.00
2018-12-14T10:05:30.973Z,0.10
2018-12-14T10:07:57.511Z,0.30
2018-12-14T10:10:23.920Z,0.50
2018-12-14T10:12:50.305Z,0.40
2018-12-14T10:15:16.764Z,0.40
2018-12-14T10:17:43.171Z,0.40
2018-12-14T10:20:09.642Z,0.40
2018-12-14T10:22:41.500Z,0.40
2018-12-14T10:25:06.509Z,0.30
2018-12-14T10:27:33.055Z,0.40
2018-12-14T10:29:59.589Z,0.40
2018-12-14T10:32:26.111Z,0.30
2018-12-14T10:34:52.535Z,0.30
2018-12-14T10:37:19.002Z,0.20
2018-12-14T10:39:45.373Z,0.20
2018-12-14T10:42:11.878Z,0.20
2018-12-14T10:44:38.337Z,0.20
2018-12-14T10:47:05.632Z,0.20
2018-12-14T10:49:32.087Z,0.20
2018-12-14T10:51:59.619Z,0.30
2018-12-14T10:54:26.258Z,0.30
2018-12-14T10:56:52.843Z,0.20
2018-12-14T10:59:19.658Z,0.10
2018-12-14T11:01:52.202Z,0.10
2018-12-14T11:04:18.644Z,0.20
2018-12-14T11:06:45.268Z,0.10
2018-12-14T11:09:11.908Z,0.10
2018-12-14T11:11:39.046Z,0.20
2018-12-14T11:14:05.738Z,0.20
2018-12-14T11:16:32.733Z,0.00
2018-12-14T11:19:00.171Z,0.00
2018-12-14T11:21:26.759Z,0.00
2018-12-14T11:23:53.299Z,0.10
2018-12-14T11:26:19.859Z,0.10
2018-12-14T11:28:46.297Z,0.20
2018-12-14T11:31:12.957Z,0.20
2018-12-14T11:33:39.563Z,0.10
2018-12-14T11:36:05.997Z,0.00
2018-12-14T11:38:32.478Z,0.00
2018-12-14T11:40:58.887Z,0.10
2018-12-14T11:43:25.376Z,0.10
2018-12-14T11:45:51.983Z,0.10
2018-12-14T11:48:18.456Z,0.30
2018-12-14T11:50:44.853Z,0.30
2018-12-14T11:53:13.450Z,0.20
2018-12-14T11:55:40.089Z,0.20
2018-12-14T11:58:06.634Z,0.10
2018-12-14T12:00:33.075Z,0.20
2018-12-14T12:03:00.065Z,0.20
2018-12-14T12:05:27.438Z,0.20
2018-12-14T12:07:54.124Z,0.30
2018-12-14T12:10:20.638Z,0.30
2018-12-14T12:12:47.047Z,0.40
2018-12-14T12:15:14.410Z,0.40
2018-12-14T12:17:41.278Z,0.40
2018-12-14T12:20:07.767Z,0.30
2018-12-14T12:22:34.409Z,0.30
2018-12-14T12:25:00.918Z,0.30
2018-12-14T12:27:27.394Z,0.40
2018-12-14T12:29:53.871Z,0.50
2018-12-14T12:32:20.380Z,0.50
2018-12-14T12:34:47.138Z,0.30
2018-12-14T12:37:13.645Z,0.30
2018-12-14T12:39:40.592Z,0.50
2018-12-14T12:42:06.987Z,0.40
2018-12-14T12:44:33.868Z,0.30
2018-12-14T12:47:00.472Z,0.40
2018-12-14T12:49:26.932Z,0.40
2018-12-14T12:51:53.567Z,0.40
2018-12-14T12:54:20.122Z,0.40
2018-12-14T12:56:46.617Z,0.40
2018-12-14T12:59:13.237Z,0.30
2018-12-14T13:01:39.702Z,0.40
2018-12-14T13:04:06.223Z,0.40
2018-12-14T13:06:32.750Z,0.30
2018-12-14T13:08:59.253Z,0.20
2018-12-14T13:11:25.867Z,0.10
2018-12-14T13:13:52.232Z,-0.10
2018-12-14T13:16:18.589Z,-0.10
2018-12-14T13:18:44.985Z,-0.20
2018-12-14T13:21:11.442Z,-0.20
2018-12-14T13:23:37.969Z,-0.20
2018-12-14T13:26:04.410Z,-0.10
2018-12-14T13:28:31.163Z,-0.20
2018-12-14T13:30:57.502Z,-0.10
2018-12-14T13:33:24.276Z,-0.10
2018-12-14T13:35:51.377Z,0.00
2018-12-14T13:38:17.696Z,0.10
2018-12-14T13:40:44.250Z,0.10
2018-12-14T13:43:10.835Z,0.10
2018-12-14T13:45:37.352Z,0.00
2018-12-14T13:48:04.114Z,0.20
2018-12-14T13:50:30.518Z,0.30
2018-12-14T13:52:56.851Z,0.30
2018-12-14T13:55:23.321Z,0.30
2018-12-14T13:57:49.735Z,0.10
2018-12-14T14:00:16.181Z,0.10
2018-12-14T14:02:42.796Z,0.00
2018-12-14T14:05:09.318Z,0.00
2018-12-14T14:07:35.731Z,0.10
2018-12-14T14:10:03.004Z,0.00
2018-12-14T14:12:30.981Z,0.00
2018-12-14T14:14:58.994Z,0.10
2018-12-14T14:17:25.533Z,0.10
2018-12-14T14:19:53.390Z,0.10
2018-12-14T14:22:20.307Z,0.00
2018-12-14T14:24:47.365Z,-0.20
2018-12-14T14:27:14.572Z,-0.20
2018-12-14T14:29:41.109Z,-0.20
2018-12-14T14:32:08.314Z,-0.30
2018-12-14T14:34:38.801Z,-0.30
2018-12-14T14:37:05.287Z,-0.10
2018-12-14T14:39:31.882Z,0.00
2018-12-14T14:41:58.742Z,0.10
2018-12-14T14:44:25.190Z,0.30
2018-12-14T14:46:52.035Z,0.20
2018-12-14T14:49:19.095Z,0.20
2018-12-14T14:51:49.000Z,0.20
2018-12-14T14:54:15.511Z,0.10
2018-12-14T14:56:42.124Z,0.10
2018-12-14T14:59:08.583Z,0.00
2018-12-14T15:01:34.985Z,-0.10
2018-12-14T15:04:01.427Z,-0.20
2018-12-14T15:06:28.230Z,-0.10
2018-12-14T15:08:54.944Z,-0.30
2018-12-14T15:11:21.559Z,-0.30
2018-12-14T15:13:47.930Z,-0.30
2018-12-14T15:16:14.277Z,-0.30
2018-12-14T15:18:40.722Z,-0.20
2018-12-14T15:21:08.543Z,0.00
2018-12-14T15:23:35.194Z,0.10
2018-12-14T15:26:01.861Z,0.00
2018-12-14T15:28:28.350Z,0.00
2018-12-14T15:30:54.738Z,-0.10
2018-12-14T15:33:21.185Z,-0.20
2018-12-14T15:35:47.661Z,-0.30
2018-12-14T15:38:14.872Z,-0.20
2018-12-14T15:40:41.768Z,-0.20
2018-12-14T15:43:08.175Z,-0.20
2018-12-14T15:45:34.643Z,-0.20
2018-12-14T15:48:01.009Z,-0.20
2018-12-14T15:50:27.445Z,-0.20
2018-12-14T15:52:53.857Z,-0.10
2018-12-14T15:55:20.653Z,-0.20
2018-12-14T15:57:47.398Z,-0.50
2018-12-14T16:00:13.972Z,-0.70
2018-12-14T16:02:40.367Z,-0.70
2018-12-14T16:05:07.006Z,-0.60
2018-12-14T16:07:33.399Z,-0.60
2018-12-14T16:09:59.801Z,-0.60
2018-12-14T16:12:26.214Z,-0.70
2018-12-14T16:14:52.663Z,-0.80
2018-12-14T16:17:19.045Z,-0.70
2018-12-14T16:19:45.503Z,-0.60
2018-12-14T16:22:11.885Z,-0.50
2018-12-14T16:24:38.332Z,-0.40
2018-12-14T16:27:04.896Z,-0.40
2018-12-14T16:29:31.341Z,-0.70
2018-12-14T16:31:57.790Z,-0.80
2018-12-14T16:34:24.183Z,-0.90
2018-12-14T16:36:50.604Z,-1.00
2018-12-14T16:39:17.117Z,-0.90
2018-12-14T16:41:43.492Z,-0.90
2018-12-14T16:47:04.583Z,-0.70
2018-12-14T16:49:31.956Z,-0.70
2018-12-14T16:51:58.336Z,-0.70
2018-12-14T16:54:24.750Z,-0.60
2018-12-14T16:56:51.209Z,-0.70
2018-12-14T16:59:18.219Z,-0.90
2018-12-14T17:01:44.835Z,-0.90
2018-12-14T17:04:11.209Z,-1.00
2018-12-14T17:06:37.767Z,-1.00
2018-12-14T17:09:04.813Z,-1.00
2018-12-14T17:11:31.375Z,-1.00
2018-12-14T17:13:57.805Z,-1.00
2018-12-14T17:16:24.240Z,-1.00
2018-12-14T17:18:50.791Z,-1.00
2018-12-14T17:21:17.260Z,-1.00
2018-12-14T17:23:43.697Z,-1.00
2018-12-14T17:26:10.324Z,-1.00
2018-12-14T17:28:36.685Z,-1.10
2018-12-14T17:31:03.188Z,-1.10
2018-12-14T17:33:35.865Z,-1.10
2018-12-14T17:35:58.123Z,-1.10
2018-12-14T17:38:24.584Z,-1.20
2018-12-14T17:40:51.107Z,-1.20
2018-12-14T17:43:17.464Z,-1.20
2018-12-14T17:45:43.899Z,-1.10
2018-12-14T17:48:10.339Z,-1.20
2018-12-14T17:50:36.704Z,-1.10
2018-12-14T17:53:03.271Z,-1.10
2018-12-14T17:55:29.731Z,-1.10
2018-12-14T17:57:56.187Z,-1.10
2018-12-14T18:00:23.499Z,-1.10
2018-12-14T18:02:49.966Z,-1.10
2018-12-14T18:05:16.346Z,-1.10
2018-12-14T18:07:42.745Z,-1.10
2018-12-14T18:10:09.212Z,-1.10
2018-12-14T18:12:35.721Z,-1.20
2018-12-14T18:15:02.765Z,-1.20
2018-12-14T18:17:29.170Z,-1.20
2018-12-14T18:19:55.564Z,-1.20
2018-12-14T18:22:22.437Z,-1.20
2018-12-14T18:24:49.251Z,-1.20
2018-12-14T18:27:16.419Z,-1.20
2018-12-14T18:29:42.849Z,-1.20
2018-12-14T18:32:09.225Z,-1.20
2018-12-14T18:34:35.685Z,-1.20
2018-12-14T18:37:02.372Z,-1.30
2018-12-14T18:39:28.709Z,-1.30
2018-12-14T18:41:55.132Z,-1.30
2018-12-14T18:44:21.624Z,-1.20
2018-12-14T18:46:47.941Z,-1.20
2018-12-14T18:49:14.594Z,-1.20
2018-12-14T18:51:41.071Z,-1.20
2018-12-14T18:54:07.479Z,-1.20
2018-12-14T18:56:33.954Z,-1.30
2018-12-14T18:59:00.331Z,-1.30
2018-12-14T19:01:26.827Z,-1.30
2018-12-14T19:03:53.617Z,-1.40
2018-12-14T19:06:19.990Z,-1.40
2018-12-14T19:08:46.354Z,-1.40
2018-12-14T19:11:12.724Z,-1.30
2018-12-14T19:13:39.104Z,-1.30
2018-12-14T19:16:05.477Z,-1.30
2018-12-14T19:18:31.997Z,-1.30
2018-12-14T19:20:58.457Z,-1.30
2018-12-14T19:23:24.872Z,-1.40
2018-12-14T19:25:51.201Z,-1.40
2018-12-14T19:28:17.564Z,-1.40
2018-12-14T19:30:43.988Z,-1.50
2018-12-14T19:33:10.336Z,-1.50
2018-12-14T19:35:36.685Z,-1.50
2018-12-14T19:38:03.202Z,-1.50
2018-12-14T19:40:29.744Z,-1.50
2018-12-14T19:42:57.002Z,-1.50
2018-12-14T19:45:23.409Z,-1.50
2018-12-14T19:47:49.709Z,-1.50
2018-12-14T19:50:16.089Z,-1.50
2018-12-14T19:52:42.448Z,-1.50
2018-12-14T19:55:08.836Z,-1.60
2018-12-14T19:57:35.221Z,-1.60
2018-12-14T20:00:01.644Z,-1.60
2018-12-14T20:02:28.387Z,-1.60
2018-12-14T20:04:54.722Z,-1.60
2018-12-14T20:07:21.499Z,-1.60
2018-12-14T20:09:47.918Z,-1.50
2018-12-14T20:12:14.293Z,-1.50
2018-12-14T20:14:40.699Z,-1.50
2018-12-14T20:17:07.275Z,-1.50
2018-12-14T20:19:34.473Z,-1.40
2018-12-14T20:22:00.814Z,-1.50
2018-12-14T20:24:27.186Z,-1.50
2018-12-14T20:26:53.559Z,-1.40
2018-12-14T20:29:19.969Z,-1.40
2018-12-14T20:31:46.349Z,-1.30
2018-12-14T20:34:12.878Z,-1.30
2018-12-14T20:36:39.328Z,-1.30
2018-12-14T20:39:07.181Z,-1.30
2018-12-14T20:41:34.806Z,-1.30
2018-12-14T20:44:01.392Z,-1.20
2018-12-14T20:46:27.934Z,-1.10
2018-12-14T20:48:54.406Z,-1.20
2018-12-14T20:51:20.907Z,-1.20
2018-12-14T20:53:49.378Z,-1.20
2018-12-14T20:56:15.992Z,-1.20
2018-12-14T20:58:42.466Z,-1.20
2018-12-14T21:01:09.109Z,-1.20
2018-12-14T21:03:35.542Z,-1.20
2018-12-14T21:06:01.944Z,-1.20
2018-12-14T21:08:28.345Z,-1.30
2018-12-14T21:10:54.785Z,-1.40
2018-12-14T21:13:21.148Z,-1.30
2018-12-14T21:15:47.533Z,-1.20
2018-12-14T21:18:13.958Z,-1.20
2018-12-14T21:20:40.334Z,-1.20
2018-12-14T21:23:08.687Z,-1.10
2018-12-14T21:25:35.205Z,-1.00
2018-12-14T21:28:01.773Z,-1.20
2018-12-14T21:30:28.180Z,-1.20
2018-12-14T21:32:54.615Z,-1.20
2018-12-14T21:35:21.059Z,-1.10
2018-12-14T21:37:47.593Z,-1.10
2018-12-14T21:40:14.380Z,-1.10
2018-12-14T21:42:41.148Z,-1.20
2018-12-14T21:45:07.929Z,-1.20
2018-12-14T21:47:34.398Z,-1.30
2018-12-14T21:50:00.915Z,-1.30
2018-12-14T21:52:27.629Z,-1.30
2018-12-14T21:54:54.029Z,-1.40
2018-12-14T21:57:20.477Z,-1.40
2018-12-14T21:59:47.005Z,-1.40
2018-12-14T22:02:13.464Z,-1.50
2018-12-14T22:04:39.835Z,-1.40
2018-12-14T22:07:06.208Z,-1.40
2018-12-14T22:09:32.706Z,-1.40
2018-12-14T22:12:00.094Z,-1.40
2018-12-14T22:14:26.715Z,-1.30
2018-12-14T22:16:53.104Z,-1.20
2018-12-14T22:19:19.517Z,-1.20
2018-12-14T22:21:45.920Z,-1.10
2018-12-14T22:24:12.336Z,-1.10
2018-12-14T22:26:38.757Z,-1.10
2018-12-14T22:29:05.171Z,-1.00
2018-12-14T22:31:31.633Z,-1.00
2018-12-14T22:33:58.033Z,-1.10
2018-12-14T22:36:24.502Z,-1.20
2018-12-14T22:38:50.950Z,-1.20
2018-12-14T22:41:17.495Z,-1.10
2018-12-14T22:43:43.971Z,-1.10
2018-12-14T22:46:10.436Z,-1.20
2018-12-14T22:48:36.864Z,-1.20
2018-12-14T22:51:03.409Z,-1.30
2018-12-14T22:53:29.767Z,-1.20
2018-12-14T22:55:56.149Z,-1.20
2018-12-14T22:58:22.528Z,-1.20
2018-12-14T23:00:53.013Z,-1.10
2018-12-14T23:03:19.849Z,-1.20
2018-12-14T23:05:46.918Z,-1.30
2018-12-14T23:08:13.496Z,-1.30
2018-12-14T23:10:39.922Z,-1.30
2018-12-14T23:13:06.386Z,-1.40
2018-12-14T23:15:32.763Z,-1.40
2018-12-14T23:17:59.110Z,-1.40
2018-12-14T23:20:25.541Z,-1.50
2018-12-14T23:22:51.994Z,-1.40
2018-12-14T23:25:18.458Z,-1.50
2018-12-14T23:27:45.042Z,-1.50
2018-12-14T23:30:11.433Z,-1.40
2018-12-14T23:32:37.961Z,-1.40
2018-12-14T23:35:05.748Z,-1.30
2018-12-14T23:37:32.130Z,-1.30
2018-12-14T23:39:58.481Z,-1.30
2018-12-14T23:42:24.865Z,-1.40
2018-12-14T23:44:51.229Z,-1.40
2018-12-14T23:47:17.624Z,-1.30
2018-12-14T23:49:43.967Z,-1.40
2018-12-14T23:52:10.339Z,-1.40
2018-12-14T23:54:36.797Z,-1.40
2018-12-14T23:57:03.309Z,-1.40
2018-12-14T23:59:29.753Z,-1.40
